Latest Weather Observations for Leigh Creek

IDS60801

Issued at 7:01 pm CST Thursday 28 May 2015 (issued every 30 minutes, with the page automatically refreshed every 10 minutes)

About weather observations | Map of weather stations | Latest weather observations for SA | Other Formats
Station Details ID: 017110 Name: LEIGH CREEK AIRPORT Lat: -30.60 Lon: 138.42 Height: 258.8 m
Data from the previous 72 hours. | See also: Recent months at Leigh Creek
Date/Time
CST
Temp
°C
App
Temp
°C
Dew
Point
Rel
Hum
%
Delta-T
°C
Wind Press
QNH
hPa
Press
MSL
hPa
Rain
since 9 am
mm
Dir
 
Spd
km/h
Gust
km/h
Spd
kts
Gust
kts
28/07:00pm 15.1 15.6 14.9 99 0.1 NNW 6 7 3 4 1021.6 1021.3 8.2
28/06:30pm 15.2 15.1 15.0 99 0.1 NNW 9 11 5 6 1021.4 1021.1 8.2
28/06:00pm 15.3 15.6 15.1 99 0.1 N 7 9 4 5 1021.0 1020.7 7.6
28/05:30pm 15.4 15.8 15.2 99 0.1 NNW 7 9 4 5 1020.9 1020.6 7.2
28/05:00pm 15.6 16.0 15.3 98 0.2 NNW 7 9 4 5 1020.9 1020.6 7.0
28/04:30pm 15.7 16.1 15.2 97 0.3 NW 7 9 4 5 1020.7 1020.4 7.0
28/04:00pm 15.7 15.8 15.4 98 0.2 NNW 9 11 5 6 1020.4 1020.2 6.8
28/03:30pm 15.8 16.3 15.5 98 0.2 N 7 9 4 5 1020.3 1020.1 6.8
28/03:00pm 15.6 15.9 15.1 97 0.3 NW 7 9 4 5 1020.4 1020.2 6.8
28/02:30pm 15.5 16.4 15.0 97 0.3 WNW 4 7 2 4 1020.4 1020.2 6.6
28/02:00pm 15.5 16.0 15.0 97 0.3 WNW 6 7 3 4 1020.5 1020.3 5.8
28/01:30pm 15.6 15.5 15.0 96 0.3 WNW 9 11 5 6 1021.0 1020.7 4.8
28/01:00pm 15.7 16.5 14.9 95 0.5 SW 4 7 2 4 1020.9 1020.6 4.6
28/12:30pm 15.3 15.7 14.7 96 0.3 WSW 6 7 3 4 1021.2 1020.9 4.6
28/12:00pm 15.3 15.6 15.0 98 0.2 WNW 7 11 4 6 1021.7 1021.4 4.2
28/11:30am 15.2 15.1 14.9 98 0.2 WNW 9 11 5 6 1022.2 1021.9 3.6
28/11:00am 15.0 16.1 14.5 97 0.3 NW 2 7 1 4 1022.3 1022.0 3.0
28/10:30am 15.1 15.3 14.1 94 0.6 NW 6 9 3 5 1022.5 1022.2 1.8
28/10:00am 15.1 14.7 14.0 93 0.6 WNW 9 11 5 6 1022.7 1022.4 0.8
28/09:30am 14.9 15.1 14.3 96 0.3 WSW 6 7 3 4 1022.5 1022.2 0.6
28/09:00am 14.4 13.7 13.3 93 0.6 WSW 9 9 5 5 1022.3 1022.0 0.8
28/08:30am 14.4 13.9 12.6 89 1.0 S 7 7 4 4 1021.7 1021.4 0.4
28/08:00am 14.5 13.9 12.4 87 1.2 SSE 7 9 4 5 1020.8 1020.5 0.2
28/07:30am 14.3 13.3 12.2 87 1.1 ESE 9 13 5 7 1020.7 1020.4 0.2
28/07:00am 13.9 12.8 11.8 87 1.1 ESE 9 11 5 6 1020.7 1020.4 0.2
28/06:30am 13.7 12.7 11.0 84 1.4 ESE 7 7 4 4 1020.7 1020.4 0.2
28/06:00am 13.3 13.4 10.1 81 1.7 CALM 0 2 0 1 1020.8 1020.5 0.2
28/05:30am 13.7 12.4 10.1 79 1.9 SE 7 9 4 5 1020.2 1020.0 0.2
28/05:00am 13.5 13.5 9.9 79 1.9 CALM 0 0 0 0 1020.2 1020.0 0.2
28/04:30am 13.5 12.3 9.6 77 2.0 ESE 6 7 3 4 1020.2 1020.0 0.2
28/04:00am 13.2 11.8 9.6 79 1.9 SSE 7 9 4 5 1020.0 1019.8 0.2
28/03:30am 13.2 12.0 9.6 79 1.9 E 6 7 3 4 1020.2 1020.0 0.2
28/03:00am 12.9 12.8 9.5 80 1.7 CALM 0 0 0 0 1020.0 1019.8 0.2
28/02:30am 12.6 12.1 9.4 81 1.6 ESE 2 6 1 3 1020.1 1019.9 0.2
28/02:00am 12.9 11.5 9.5 80 1.8 ESE 7 9 4 5 1019.9 1019.7 0.2
28/01:30am 12.9 11.0 9.2 78 1.9 N 9 13 5 7 1019.8 1019.5 0.2
28/01:00am 13.8 12.7 10.0 78 2.0 NNW 6 7 3 4 1020.1 1019.9 0.2
28/12:30am 13.8 12.1 9.8 77 2.1 NNW 9 11 5 6 1020.1 1019.9 0.2
28/12:00am 14.1 12.8 9.9 76 2.2 NNW 7 9 4 5 1020.4 1020.2 0.2
 
Date/Time
CST
Temp
°C
App
Temp
°C
Dew
Point
Rel
Hum
%
Delta-T
°C
Wind Press
QNH
hPa
Press
MSL
hPa
Rain
since 9 am
mm
Dir
 
Spd
km/h
Gust
km/h
Spd
kts
Gust
kts
27/11:30pm 14.4 13.2 9.6 73 2.5 NNW 6 7 3 4 1020.8 1020.5 0.2
27/11:00pm 15.1 15.2 10.1 72 2.6 CALM 0 0 0 0 1021.1 1020.8 0.2
27/10:30pm 15.1 15.1 9.9 71 2.7 CALM 0 0 0 0 1021.2 1020.9 0.2
27/10:00pm 15.2 14.0 10.2 72 2.7 NNW 7 7 4 4 1021.2 1020.9 0.2
27/09:30pm 15.4 14.2 10.2 71 2.8 NNW 7 7 4 4 1021.2 1020.9 0.2
27/09:00pm 15.3 15.4 10.1 71 2.7 CALM 0 0 0 0 1021.1 1020.8 0.2
27/08:30pm 15.5 14.5 10.3 71 2.8 NNW 6 6 3 3 1021.1 1020.8 0.2
27/08:00pm 16.0 14.7 10.1 68 3.1 NNW 7 9 4 5 1020.9 1020.6 0.2
27/07:30pm 16.9 15.3 10.3 65 3.5 NNW 9 9 5 5 1020.4 1020.2 0.2
27/07:00pm 17.4 15.9 10.5 64 3.7 NNW 9 9 5 5 1020.4 1020.2 0.2
27/06:30pm 18.4 16.6 10.7 61 4.2 NNW 11 11 6 6 1020.4 1020.2 0.2
27/06:00pm 19.1 17.2 10.6 58 4.6 NNW 11 13 6 7 1020.2 1020.0 0.2
27/05:30pm 19.5 17.6 10.5 56 4.9 NNW 11 15 6 8 1020.2 1020.0 0.2
27/05:00pm 20.2 17.9 10.6 54 5.3 NNW 13 17 7 9 1019.9 1019.7 0.2
27/04:30pm 20.5 18.5 10.3 52 5.6 NNW 11 15 6 8 1019.7 1019.4 0.2
27/04:00pm 20.8 18.5 10.3 51 5.8 N 13 17 7 9 1019.7 1019.4 0.2
27/03:30pm 21.0 18.3 10.5 51 5.8 NNW 15 20 8 11 1019.8 1019.5 0.2
27/03:00pm 21.2 18.4 10.1 49 6.1 NNW 15 20 8 11 1019.9 1019.7 0.2
27/02:30pm 21.5 18.0 10.3 49 6.2 NNW 19 24 10 13 1020.1 1019.9 0.2
27/02:00pm 21.9 18.5 10.4 48 6.4 NNW 19 26 10 14 1020.2 1020.0 0.2
27/01:30pm 21.3 18.0 10.8 51 5.8 NNW 19 24 10 13 1020.5 1020.3 0.2
27/01:00pm 21.2 18.4 11.5 54 5.5 NNW 17 20 9 11 1021.1 1020.8 0.0
27/12:30pm 20.5 17.7 11.2 55 5.2 NNW 17 20 9 11 1021.5 1021.2 0.0
27/12:00pm 20.6 17.6 10.7 53 5.4 N 17 22 9 12 1021.9 1021.6 0.0
27/11:30am 20.2 18.3 11.7 58 4.8 NNW 13 17 7 9 1022.5 1022.2 0.0
27/11:00am 19.8 18.3 11.8 60 4.5 N 11 17 6 9 1022.7 1022.4 0.0
27/10:30am 19.7 18.5 11.7 60 4.5 NNW 9 15 5 8 1023.0 1022.7 0.0
27/10:00am 19.0 18.8 11.8 63 4.0 NW 4 7 2 4 1022.9 1022.6 0.0
27/09:30am 18.5 18.0 12.0 66 3.6 SSW 6 6 3 3 1022.7 1022.4 0.0
27/09:00am 17.3 18.0 12.2 72 2.8 CALM 0 0 0 0 1022.9 1022.6 0.0
27/08:30am 16.6 17.3 12.2 75 2.4 CALM 0 0 0 0 1022.7 1022.4 0.0
27/08:00am 15.0 15.8 12.5 85 1.4 CALM 0 0 0 0 1022.6 1022.3 0.0
27/07:30am 14.4 15.2 12.4 88 1.1 CALM 0 0 0 0 1022.5 1022.2 0.0
27/07:00am 14.4 15.1 12.3 87 1.2 CALM 0 0 0 0 1022.1 1021.8 0.0
27/06:30am 14.6 15.3 12.1 85 1.4 CALM 0 0 0 0 1021.9 1021.6 0.0
27/06:00am 15.2 15.6 12.5 84 1.5 SSW 2 7 1 4 1021.5 1021.2 0.0
27/05:30am 15.2 16.0 12.7 85 1.4 CALM 0 0 0 0 1021.7 1021.4 0.0
27/05:00am 15.3 16.2 12.8 85 1.4 CALM 0 0 0 0 1021.5 1021.2 0.0
27/04:30am 15.4 15.8 12.5 83 1.6 N 2 7 1 4 1021.5 1021.2 0.0
27/04:00am 15.3 15.7 12.4 83 1.6 WSW 2 7 1 4 1021.7 1021.4 0.0
27/03:30am 15.5 15.0 12.8 84 1.5 NE 7 11 4 6 1021.7 1021.4 0.0
27/03:00am 15.1 14.8 12.6 85 1.4 ENE 6 11 3 6 1021.8 1021.5 0.0
27/02:30am 15.5 15.8 12.1 80 1.9 ENE 2 6 1 3 1022.4 1022.1 0.0
27/02:00am 15.3 14.2 12.1 81 1.8 E 9 9 5 5 1022.5 1022.2 0.0
27/01:30am 15.2 14.4 11.0 76 2.3 SSE 6 7 3 4 1022.6 1022.3 0.0
27/01:00am 15.5 14.3 10.3 71 2.8 S 7 9 4 5 1022.5 1022.2 0.0
27/12:30am 16.2 15.3 9.2 63 3.6 S 4 6 2 3 1022.7 1022.4 0.0
27/12:00am 16.1 14.8 9.8 66 3.3 S 7 7 4 4 1022.8 1022.5 0.0
 
Date/Time
CST
Temp
°C
App
Temp
°C
Dew
Point
Rel
Hum
%
Delta-T
°C
Wind Press
QNH
hPa
Press
MSL
hPa
Rain
since 9 am
mm
Dir
 
Spd
km/h
Gust
km/h
Spd
kts
Gust
kts
26/11:30pm 16.4 15.7 8.6 60 4.0 S 2 6 1 3 1022.8 1022.5 0.0
26/11:00pm 16.8 15.5 6.0 49 5.3 ENE 2 7 1 4 1023.0 1022.7 0.0
26/10:30pm 16.4 15.5 6.0 50 5.1 CALM 0 0 0 0 1023.0 1022.7 0.0
26/10:00pm 16.4 15.5 6.0 50 5.1 CALM 0 4 0 2 1023.1 1022.8 0.0
26/09:30pm 17.3 14.7 5.9 47 5.6 E 9 11 5 6 1022.9 1022.6 0.0
26/09:00pm 17.2 16.2 5.8 47 5.6 CALM 0 7 0 4 1022.9 1022.6 0.0
26/08:30pm 18.3 16.2 5.8 44 6.2 S 6 9 3 5 1022.9 1022.6 0.0
26/08:00pm 18.1 15.5 6.0 45 6.0 SSW 9 11 5 6 1023.1 1022.8 0.0
26/07:30pm 17.7 15.6 5.9 46 5.8 SSW 6 7 3 4 1022.7 1022.4 0.0
26/07:00pm 19.1 17.4 5.9 42 6.6 NNW 4 7 2 4 1022.5 1022.2 0.0
26/06:30pm 19.7 18.7 5.7 40 7.0 CALM 0 0 0 0 1022.3 1022.0 0.0
26/06:00pm 20.1 18.1 6.1 40 7.0 NNW 6 7 3 4 1022.2 1021.9 0.0
26/05:30pm 21.0 18.7 5.8 37 7.7 NNW 7 9 4 5 1022.0 1021.7 0.0
26/05:00pm 21.7 18.3 6.0 36 8.0 N 13 15 7 8 1022.1 1021.8 0.0
26/04:30pm 22.2 18.8 6.0 35 8.2 NNW 13 17 7 9 1022.1 1021.8 0.0
26/04:00pm 22.6 19.5 5.5 33 8.7 NNW 11 17 6 9 1021.9 1021.6 0.0
26/03:30pm 22.9 19.9 6.2 34 8.6 NNW 11 17 6 9 1022.0 1021.7 0.0
26/03:00pm 22.9 20.7 6.2 34 8.6 WNW 7 13 4 7 1022.1 1021.8 0.0
26/02:30pm 22.6 18.5 6.0 34 8.5 NNW 17 20 9 11 1022.3 1022.0 0.0
26/02:00pm 22.5 18.0 5.9 34 8.5 N 19 30 10 16 1022.6 1022.3 0.0
26/01:30pm 22.5 18.3 5.9 34 8.4 N 17 22 9 12 1023.1 1022.8 0.0
26/01:00pm 22.5 18.3 5.9 34 8.5 NNW 17 24 9 13 1023.4 1023.2 0.0
26/12:30pm 21.9 17.5 4.9 33 8.5 NNW 17 22 9 12 1023.6 1023.4 0.0
26/12:00pm 22.1 17.8 5.1 33 8.5 N 17 26 9 14 1024.2 1024.0 0.0
26/11:30am 22.2 17.4 4.7 32 8.7 N 19 26 10 14 1024.8 1024.5 0.0
26/11:00am 21.1 16.8 5.1 35 8.0 N 17 24 9 13 1025.2 1024.9 0.0
26/10:30am 21.3 16.8 4.4 33 8.3 N 17 22 9 12 1025.5 1025.2 0.0
26/10:00am 20.1 17.4 5.4 38 7.3 N 9 13 5 7 1026.0 1025.7 0.0
26/09:30am 19.6 17.1 6.7 43 6.5 NNE 9 15 5 8 1026.1 1025.8 0.0
26/09:00am 17.7 16.1 8.6 55 4.7 E 7 11 4 6 1025.9 1025.6 0.0
26/08:30am 15.7 13.8 8.9 64 3.5 ESE 9 13 5 7 1026.2 1025.9 0.0
26/08:00am 14.6 12.9 8.5 67 3.1 NE 7 11 4 6 1026.1 1025.8 0.0
26/07:30am 13.8 13.1 8.4 70 2.7 S 2 7 1 4 1026.0 1025.7 0.0
26/07:00am 14.6 12.7 7.6 63 3.5 S 7 9 4 5 1025.7 1025.4 0.0
26/06:30am 14.3 12.2 8.3 67 3.0 SE 9 11 5 6 1025.3 1025.0 0.0
26/06:00am 14.3 12.4 7.6 64 3.3 SSE 7 9 4 5 1025.1 1024.8 0.0
26/05:30am 14.7 11.8 6.5 58 4.0 ESE 11 13 6 7 1024.9 1024.6 0.0
26/05:00am 14.8 12.2 5.9 55 4.3 E 9 13 5 7 1025.1 1024.8 0.0
26/04:30am 14.8 11.8 5.9 55 4.3 ESE 11 13 6 7 1025.2 1024.9 0.0
26/04:00am 15.5 13.3 5.4 51 4.9 SSE 6 9 3 5 1025.6 1025.3 0.0
26/03:30am 15.5 13.1 5.4 51 4.8 SSE 7 9 4 5 1025.7 1025.4 0.0
26/03:00am 15.8 13.6 5.4 50 5.0 SE 6 7 3 4 1025.8 1025.5 0.0
26/02:30am 15.9 14.1 5.5 50 5.0 ENE 4 6 2 3 1025.9 1025.6 0.0
26/02:00am 16.5 14.2 5.5 48 5.4 NE 7 13 4 7 1025.3 1025.0 0.0
26/01:30am 16.3 13.9 5.3 48 5.3 NE 7 11 4 6 1025.7 1025.4 0.0
26/01:00am 15.0 13.2 5.5 53 4.6 ENE 4 11 2 6 1025.8 1025.5 0.0
26/12:30am 16.0 14.2 5.3 49 5.1 ENE 4 7 2 4 1025.8 1025.5 0.0
26/12:00am 16.3 13.1 5.3 48 5.3 E 11 13 6 7 1025.7 1025.4 0.0
 
Date/Time
CST
Temp
°C
App
Temp
°C
Dew
Point
Rel
Hum
%
Delta-T
°C
Wind Press
QNH
hPa
Press
MSL
hPa
Rain
since 9 am
mm
Dir
 
Spd
km/h
Gust
km/h
Spd
kts
Gust
kts
25/11:30pm 16.4 13.7 5.4 48 5.3 ESE 9 13 5 7 1026.1 1025.8 0.0
25/11:00pm 16.7 12.0 5.3 47 5.5 E 19 22 10 12 1026.0 1025.7 0.0
25/10:30pm 16.6 13.5 5.6 48 5.3 E 11 15 6 8 1026.4 1026.1 0.0
25/10:00pm 16.8 14.5 5.7 48 5.4 ESE 7 11 4 6 1026.5 1026.3 0.0
25/09:30pm 16.5 14.5 6.1 50 5.1 E 6 9 3 5 1026.8 1026.6 0.0
25/09:00pm 16.7 15.4 5.9 49 5.3 E 2 7 1 4 1026.7 1026.5 0.0
25/08:30pm 17.2 13.5 6.1 48 5.5 E 15 17 8 9 1026.4 1026.1 0.0
25/08:00pm 17.4 14.0 6.0 47 5.6 E 13 17 7 9 1026.4 1026.1 0.0
25/07:30pm 17.2 13.4 5.8 47 5.6 E 15 17 8 9 1026.0 1025.7 0.0

Other Formats:

Comma delimited format used in spreadsheet applications
http://www.bom.gov.au/fwo/IDS60801/IDS60801.94674.axf

JavaScript Object Notation format (JSON) in row-major order
http://www.bom.gov.au/fwo/IDS60801/IDS60801.94674.json